McCleary, Washington
Current Conditions -  °F | °C
As of 5:00 AM on Saturday 25 Oct 2014 (Local Time) from KSHN Reporting Station
Broken Clouds Broken Clouds  
Wind Chill: 46°   Ceiling: 300
Heat Index: 48°   Visibility: 10mi
Dew Point: 47°   Wind: 5mph
Humidity: 96%   Direction: 40°NE
Pressure: 29.49"   Gusts: NA
Location:  47.05°N, 123.27°W
Report Text: KSHN 251200Z AUTO 04004KT 10SM BKN003 BKN090 BKN110 09/08 A2949 RMK AO2 T00890083 TSNO
Loading
Personal Weather Stations






























Interactive Weather Map
Tropical Storm Tracking
New forecast layout! Learn more

10-Day Weather Forecast

Advertisements
Track Severe Weather on mobile